Direito Ao Destino — CUOC — position and weather

sailwx.info

Track history (hours):
 
Tides and Currents Weather Stations Pressure Air Temp Water Temp Dewpoint Dewpoint Depression Visibility Wind Speed Wind Dir Waves Ship Positions

Direito Ao Destino

Last reported at 2018-Feb-20 19:25 UTC. Time now 2018-Feb-20 19:39 UTC.
Position N 38°20' W 009°17'.

Length 16 m.

Type: Fishing. MMSI: 263412560.

Date/timePositionNaut miles runAvg speedWind from/ knotsBaromVisibWave heightAir tempDewpointWater temp
2018-Feb-20 19:25N 38°20' W 009°17'0 1.1
2018-Feb-20 19:00N 38°20' W 009°18'0 0.6
2018-Feb-20 18:30N 38°20' W 009°18'0 0.5
2018-Feb-20 18:00N 38°21' W 009°18'0 0.6
2018-Feb-20 17:30N 38°21' W 009°18'0 0.5
2018-Feb-20 17:00N 38°21' W 009°18'0 0.5
2018-Feb-20 16:30N 38°21' W 009°18'2 4.6
2018-Feb-20 16:01N 38°22' W 009°15'5 8.4
2018-Feb-20 15:27N 38°25' W 009°10'  
2018-Feb-15 07:06N 38°17' W 009°11'2 7.7
2018-Feb-15 06:54N 38°16' W 009°12'3 3.7
2018-Feb-15 06:05N 38°16' W 009°16'1 4.5
2018-Feb-15 05:53N 38°16' W 009°17'3 0.7
2018-Feb-15 01:42N 38°17' W 009°14'0 0.8
2018-Feb-15 01:25N 38°17' W 009°13'1 1.0
2018-Feb-15 00:47N 38°16' W 009°13'1 0.8
2018-Feb-15 00:08N 38°16' W 009°12'0 0.0
2018-Feb-14 23:59N 38°16' W 009°12'2 3.0
2018-Feb-14 23:25N 38°17' W 009°14'3 5.0
2018-Feb-14 22:52N 38°19' W 009°16'0 0.1
2018-Feb-14 20:35N 38°19' W 009°16'0 0.9
2018-Feb-14 20:09N 38°19' W 009°16'0 0.9
2018-Feb-14 19:52N 38°20' W 009°17'1 1.1
2018-Feb-14 19:23N 38°20' W 009°17'0 1.0
2018-Feb-14 18:53N 38°20' W 009°18'0 0.5
2018-Feb-14 18:17N 38°21' W 009°18'0 0.3
2018-Feb-14 17:54N 38°21' W 009°18'0 0.5
2018-Feb-14 17:26N 38°21' W 009°18'0 0.4
2018-Feb-14 16:48N 38°21' W 009°17'0 0.5
2018-Feb-14 16:28N 38°21' W 009°18'  
2018-Feb-12 10:39N 38°17' W 009°10'2 8.4
2018-Feb-12 10:28N 38°16' W 009°11'3 4.3
2018-Feb-12 09:49N 38°17' W 009°14'2 4.3
2018-Feb-12 09:27N 38°16' W 009°16'2 1.7
2018-Feb-12 08:29N 38°17' W 009°15'2 3.6
2018-Feb-12 07:59N 38°19' W 009°16'2 4.2
2018-Feb-12 07:26N 38°20' W 009°18'2 4.0
2018-Feb-12 06:58N 38°21' W 009°17'3 5.3
2018-Feb-12 06:28N 38°23' W 009°14'  
Track history (hours):
 
Tides and Currents Weather Stations Pressure Air Temp Water Temp Dewpoint Dewpoint Depression Visibility Wind Speed Wind Dir Waves Ship Positions

Direito Ao Destino

Last reported at 2018-Feb-20 19:25 UTC. Time now 2018-Feb-20 19:39 UTC.
Position N 38°20' W 009°17'.

Length 16 m.

Type: Fishing. MMSI: 263412560.

Date/timePositionNaut miles runAvg speedWind from/ knotsBaromVisibWave heightAir tempDewpointWater temp
2018-Feb-20 19:25N 38°20' W 009°17'0 1.1
2018-Feb-20 19:00N 38°20' W 009°18'0 0.6
2018-Feb-20 18:30N 38°20' W 009°18'0 0.5
2018-Feb-20 18:00N 38°21' W 009°18'0 0.6
2018-Feb-20 17:30N 38°21' W 009°18'0 0.5
2018-Feb-20 17:00N 38°21' W 009°18'0 0.5
2018-Feb-20 16:30N 38°21' W 009°18'2 4.6
2018-Feb-20 16:01N 38°22' W 009°15'5 8.4
2018-Feb-20 15:27N 38°25' W 009°10'  
2018-Feb-15 07:06N 38°17' W 009°11'2 7.7
2018-Feb-15 06:54N 38°16' W 009°12'3 3.7
2018-Feb-15 06:05N 38°16' W 009°16'1 4.5
2018-Feb-15 05:53N 38°16' W 009°17'3 0.7
2018-Feb-15 01:42N 38°17' W 009°14'0 0.8
2018-Feb-15 01:25N 38°17' W 009°13'1 1.0
2018-Feb-15 00:47N 38°16' W 009°13'1 0.8
2018-Feb-15 00:08N 38°16' W 009°12'0 0.0
2018-Feb-14 23:59N 38°16' W 009°12'2 3.0
2018-Feb-14 23:25N 38°17' W 009°14'3 5.0
2018-Feb-14 22:52N 38°19' W 009°16'0 0.1
2018-Feb-14 20:35N 38°19' W 009°16'0 0.9
2018-Feb-14 20:09N 38°19' W 009°16'0 0.9
2018-Feb-14 19:52N 38°20' W 009°17'1 1.1
2018-Feb-14 19:23N 38°20' W 009°17'0 1.0
2018-Feb-14 18:53N 38°20' W 009°18'0 0.5
2018-Feb-14 18:17N 38°21' W 009°18'0 0.3
2018-Feb-14 17:54N 38°21' W 009°18'0 0.5
2018-Feb-14 17:26N 38°21' W 009°18'0 0.4
2018-Feb-14 16:48N 38°21' W 009°17'0 0.5
2018-Feb-14 16:28N 38°21' W 009°18'  
2018-Feb-12 10:39N 38°17' W 009°10'2 8.4
2018-Feb-12 10:28N 38°16' W 009°11'3 4.3
2018-Feb-12 09:49N 38°17' W 009°14'2 4.3
2018-Feb-12 09:27N 38°16' W 009°16'2 1.7
2018-Feb-12 08:29N 38°17' W 009°15'2 3.6
2018-Feb-12 07:59N 38°19' W 009°16'2 4.2
2018-Feb-12 07:26N 38°20' W 009°18'2 4.0
2018-Feb-12 06:58N 38°21' W 009°17'3 5.3
2018-Feb-12 06:28N 38°23' W 009°14'  

Dump ship's entire track history